Terminal Aerodrome Forecast
Issued by NWS Goodland, KS

Home | Current Version | Previous Version | Text Only | Print | Product List | Glossary On
Versions: 1 2 3 4 5 6 7 8 9 10 11 12 13
000
FTUS43 KGLD 292348
TAFGLD
TAF
KGLD 292348Z 3000/3024 13010G17KT P6SM SKC
     FM300300 14010KT P6SM FEW250
     FM302300 13010KT P6SM SCT250=

USA.gov is the U.S. government's official web portal to all federal, state and local government web resources and services.